sensor_id;sensor_type;location;lat;lon;timestamp;temperature;humidity
7028;DHT22;3555;53.248;10.336;2022-07-06T00:02:18;16.90;1.00
7028;DHT22;3555;53.248;10.336;2022-07-06T00:04:45;17.00;1.00
7028;DHT22;3555;53.248;10.336;2022-07-06T00:07:13;16.90;1.00
7028;DHT22;3555;53.248;10.336;2022-07-06T00:09:40;16.80;1.00
7028;DHT22;3555;53.248;10.336;2022-07-06T00:12:08;16.80;1.00
7028;DHT22;3555;53.248;10.336;2022-07-06T00:14:35;16.80;1.00
7028;DHT22;3555;53.248;10.336;2022-07-06T00:17:02;16.80;1.00
7028;DHT22;3555;53.248;10.336;2022-07-06T00:19:29;16.80;1.00
7028;DHT22;3555;53.248;10.336;2022-07-06T00:21:55;16.80;1.00
7028;DHT22;3555;53.248;10.336;2022-07-06T00:24:24;16.70;1.00
7028;DHT22;3555;53.248;10.336;2022-07-06T00:26:50;16.80;1.00
7028;DHT22;3555;53.248;10.336;2022-07-06T00:29:17;16.90;1.00
7028;DHT22;3555;53.248;10.336;2022-07-06T00:31:44;16.80;1.00
7028;DHT22;3555;53.248;10.336;2022-07-06T00:34:11;16.80;1.00
7028;DHT22;3555;53.248;10.336;2022-07-06T00:36:38;16.70;1.00
7028;DHT22;3555;53.248;10.336;2022-07-06T00:39:04;16.50;1.00
7028;DHT22;3555;53.248;10.336;2022-07-06T00:41:33;16.50;1.00
7028;DHT22;3555;53.248;10.336;2022-07-06T00:43:59;16.50;1.00
7028;DHT22;3555;53.248;10.336;2022-07-06T00:46:28;16.40;1.00
7028;DHT22;3555;53.248;10.336;2022-07-06T00:48:57;16.40;1.00
7028;DHT22;3555;53.248;10.336;2022-07-06T00:51:32;16.40;1.00
7028;DHT22;3555;53.248;10.336;2022-07-06T00:54:00;16.40;7.40
7028;DHT22;3555;53.248;10.336;2022-07-06T00:56:30;16.40;96.50
7028;DHT22;3555;53.248;10.336;2022-07-06T00:59:00;16.30;99.90
7028;DHT22;3555;53.248;10.336;2022-07-06T01:01:27;16.30;99.90
7028;DHT22;3555;53.248;10.336;2022-07-06T01:03:54;16.30;99.90
7028;DHT22;3555;53.248;10.336;2022-07-06T01:06:21;16.30;99.90
7028;DHT22;3555;53.248;10.336;2022-07-06T01:08:48;16.30;99.90
7028;DHT22;3555;53.248;10.336;2022-07-06T01:11:16;16.30;20.30
7028;DHT22;3555;53.248;10.336;2022-07-06T01:13:44;16.30;99.90
7028;DHT22;3555;53.248;10.336;2022-07-06T01:16:13;16.30;76.20
7028;DHT22;3555;53.248;10.336;2022-07-06T01:18:40;16.30;99.90
7028;DHT22;3555;53.248;10.336;2022-07-06T01:21:10;16.30;99.90
7028;DHT22;3555;53.248;10.336;2022-07-06T01:23:41;16.30;99.90
7028;DHT22;3555;53.248;10.336;2022-07-06T01:26:10;16.30;99.90
7028;DHT22;3555;53.248;10.336;2022-07-06T01:28:37;16.30;99.90
7028;DHT22;3555;53.248;10.336;2022-07-06T01:31:04;16.30;99.90
7028;DHT22;3555;53.248;10.336;2022-07-06T01:33:31;16.30;99.90
7028;DHT22;3555;53.248;10.336;2022-07-06T01:35:58;16.30;99.90
7028;DHT22;3555;53.248;10.336;2022-07-06T01:38:26;16.30;99.90
7028;DHT22;3555;53.248;10.336;2022-07-06T01:40:53;16.40;99.90
7028;DHT22;3555;53.248;10.336;2022-07-06T01:43:20;16.40;99.90
7028;DHT22;3555;53.248;10.336;2022-07-06T01:45:47;16.30;99.90
7028;DHT22;3555;53.248;10.336;2022-07-06T01:48:14;16.30;99.90
7028;DHT22;3555;53.248;10.336;2022-07-06T01:50:41;16.30;99.90
7028;DHT22;3555;53.248;10.336;2022-07-06T01:53:07;16.30;99.90
7028;DHT22;3555;53.248;10.336;2022-07-06T01:55:36;16.30;99.90
7028;DHT22;3555;53.248;10.336;2022-07-06T01:58:02;16.30;99.90
7028;DHT22;3555;53.248;10.336;2022-07-06T02:00:29;16.30;99.90
7028;DHT22;3555;53.248;10.336;2022-07-06T02:02:56;16.40;99.90
7028;DHT22;3555;53.248;10.336;2022-07-06T02:05:23;16.40;99.90
7028;DHT22;3555;53.248;10.336;2022-07-06T02:07:50;16.40;99.90
7028;DHT22;3555;53.248;10.336;2022-07-06T02:10:16;16.30;99.90
7028;DHT22;3555;53.248;10.336;2022-07-06T02:12:45;16.30;99.90
7028;DHT22;3555;53.248;10.336;2022-07-06T02:15:12;16.30;99.90
7028;DHT22;3555;53.248;10.336;2022-07-06T02:17:39;16.20;99.90
7028;DHT22;3555;53.248;10.336;2022-07-06T02:20:06;16.30;1.00
7028;DHT22;3555;53.248;10.336;2022-07-06T02:22:33;16.30;1.00
7028;DHT22;3555;53.248;10.336;2022-07-06T02:25:00;16.40;99.90
7028;DHT22;3555;53.248;10.336;2022-07-06T02:27:27;16.40;99.90
7028;DHT22;3555;53.248;10.336;2022-07-06T02:29:55;16.40;99.90
7028;DHT22;3555;53.248;10.336;2022-07-06T02:32:22;16.40;99.90
7028;DHT22;3555;53.248;10.336;2022-07-06T02:34:49;16.50;99.90
7028;DHT22;3555;53.248;10.336;2022-07-06T02:37:16;16.50;99.90
7028;DHT22;3555;53.248;10.336;2022-07-06T02:39:42;16.40;99.90
7028;DHT22;3555;53.248;10.336;2022-07-06T02:42:09;16.50;99.90
7028;DHT22;3555;53.248;10.336;2022-07-06T02:44:36;16.50;99.90
7028;DHT22;3555;53.248;10.336;2022-07-06T02:47:04;16.60;99.90
7028;DHT22;3555;53.248;10.336;2022-07-06T02:49:31;16.60;99.90
7028;DHT22;3555;53.248;10.336;2022-07-06T02:51:58;16.60;99.90
7028;DHT22;3555;53.248;10.336;2022-07-06T02:54:25;16.50;99.90
7028;DHT22;3555;53.248;10.336;2022-07-06T02:56:52;16.50;99.90
7028;DHT22;3555;53.248;10.336;2022-07-06T02:59:19;16.40;99.90
7028;DHT22;3555;53.248;10.336;2022-07-06T03:01:46;16.40;99.90
7028;DHT22;3555;53.248;10.336;2022-07-06T03:04:14;16.50;99.90
7028;DHT22;3555;53.248;10.336;2022-07-06T03:06:41;16.50;99.90
7028;DHT22;3555;53.248;10.336;2022-07-06T03:09:08;16.50;99.90
7028;DHT22;3555;53.248;10.336;2022-07-06T03:11:35;16.50;99.90
7028;DHT22;3555;53.248;10.336;2022-07-06T03:14:02;16.40;99.90
7028;DHT22;3555;53.248;10.336;2022-07-06T03:16:29;16.40;99.90
7028;DHT22;3555;53.248;10.336;2022-07-06T03:18:56;16.30;99.90
7028;DHT22;3555;53.248;10.336;2022-07-06T03:21:25;16.20;99.90
7028;DHT22;3555;53.248;10.336;2022-07-06T03:23:52;16.00;1.00
7028;DHT22;3555;53.248;10.336;2022-07-06T03:26:19;16.00;1.00
7028;DHT22;3555;53.248;10.336;2022-07-06T03:28:45;16.00;1.00
7028;DHT22;3555;53.248;10.336;2022-07-06T03:31:12;16.10;1.00
7028;DHT22;3555;53.248;10.336;2022-07-06T03:33:39;16.10;1.00
7028;DHT22;3555;53.248;10.336;2022-07-06T03:36:06;16.10;1.00
7028;DHT22;3555;53.248;10.336;2022-07-06T03:38:35;16.20;1.00
7028;DHT22;3555;53.248;10.336;2022-07-06T03:41:02;16.20;1.00
7028;DHT22;3555;53.248;10.336;2022-07-06T03:43:29;16.20;1.00
7028;DHT22;3555;53.248;10.336;2022-07-06T03:45:56;16.30;1.00
7028;DHT22;3555;53.248;10.336;2022-07-06T03:48:23;16.40;1.00
7028;DHT22;3555;53.248;10.336;2022-07-06T03:50:50;16.40;1.00
7028;DHT22;3555;53.248;10.336;2022-07-06T03:53:17;16.40;1.00
7028;DHT22;3555;53.248;10.336;2022-07-06T03:55:45;16.40;1.00
7028;DHT22;3555;53.248;10.336;2022-07-06T03:58:32;16.30;1.00
7028;DHT22;3555;53.248;10.336;2022-07-06T04:00:59;16.30;1.00
7028;DHT22;3555;53.248;10.336;2022-07-06T04:03:26;16.40;1.00
7028;DHT22;3555;53.248;10.336;2022-07-06T04:05:53;16.40;1.00
7028;DHT22;3555;53.248;10.336;2022-07-06T04:08:20;16.40;1.00
7028;DHT22;3555;53.248;10.336;2022-07-06T04:10:48;16.30;1.00
7028;DHT22;3555;53.248;10.336;2022-07-06T04:13:15;16.30;1.00
7028;DHT22;3555;53.248;10.336;2022-07-06T04:15:42;16.30;1.00
7028;DHT22;3555;53.248;10.336;2022-07-06T04:18:09;16.30;1.00
7028;DHT22;3555;53.248;10.336;2022-07-06T04:20:36;16.20;1.00
7028;DHT22;3555;53.248;10.336;2022-07-06T04:23:02;16.20;1.00
7028;DHT22;3555;53.248;10.336;2022-07-06T04:25:29;16.10;1.00
7028;DHT22;3555;53.248;10.336;2022-07-06T04:27:57;16.10;1.00
7028;DHT22;3555;53.248;10.336;2022-07-06T04:30:24;16.00;1.00
7028;DHT22;3555;53.248;10.336;2022-07-06T04:32:51;15.90;89.90
7028;DHT22;3555;53.248;10.336;2022-07-06T04:35:18;16.00;1.00
7028;DHT22;3555;53.248;10.336;2022-07-06T04:37:45;16.00;99.90
7028;DHT22;3555;53.248;10.336;2022-07-06T04:40:12;16.00;26.50
7028;DHT22;3555;53.248;10.336;2022-07-06T04:42:39;16.10;99.90
7028;DHT22;3555;53.248;10.336;2022-07-06T04:45:09;16.20;99.90
7028;DHT22;3555;53.248;10.336;2022-07-06T04:47:36;16.30;99.90
7028;DHT22;3555;53.248;10.336;2022-07-06T04:50:04;16.30;1.00
7028;DHT22;3555;53.248;10.336;2022-07-06T04:52:31;16.50;1.00
7028;DHT22;3555;53.248;10.336;2022-07-06T04:54:58;16.50;1.00
7028;DHT22;3555;53.248;10.336;2022-07-06T04:57:25;16.50;1.00
7028;DHT22;3555;53.248;10.336;2022-07-06T04:59:53;16.50;1.00
7028;DHT22;3555;53.248;10.336;2022-07-06T05:02:22;16.60;1.00
7028;DHT22;3555;53.248;10.336;2022-07-06T05:04:48;16.60;1.00
7028;DHT22;3555;53.248;10.336;2022-07-06T05:07:15;16.70;1.00
7028;DHT22;3555;53.248;10.336;2022-07-06T05:09:42;16.70;1.00
7028;DHT22;3555;53.248;10.336;2022-07-06T05:12:10;16.80;99.90
7028;DHT22;3555;53.248;10.336;2022-07-06T05:14:37;16.80;99.90
7028;DHT22;3555;53.248;10.336;2022-07-06T05:17:04;16.60;99.90
7028;DHT22;3555;53.248;10.336;2022-07-06T05:19:32;16.70;1.00
7028;DHT22;3555;53.248;10.336;2022-07-06T05:22:00;16.80;99.90
7028;DHT22;3555;53.248;10.336;2022-07-06T05:24:26;16.70;1.00
7028;DHT22;3555;53.248;10.336;2022-07-06T05:26:53;16.60;99.90
7028;DHT22;3555;53.248;10.336;2022-07-06T05:29:20;16.60;99.90
7028;DHT22;3555;53.248;10.336;2022-07-06T05:31:47;16.60;1.00
7028;DHT22;3555;53.248;10.336;2022-07-06T05:34:13;16.70;99.90
7028;DHT22;3555;53.248;10.336;2022-07-06T05:36:42;16.80;99.90
7028;DHT22;3555;53.248;10.336;2022-07-06T05:39:09;16.80;99.90
7028;DHT22;3555;53.248;10.336;2022-07-06T05:41:36;16.90;99.90
7028;DHT22;3555;53.248;10.336;2022-07-06T05:44:03;17.00;99.90
7028;DHT22;3555;53.248;10.336;2022-07-06T05:46:30;17.10;99.90
7028;DHT22;3555;53.248;10.336;2022-07-06T05:48:57;17.20;99.90
7028;DHT22;3555;53.248;10.336;2022-07-06T05:51:43;17.30;99.90
7028;DHT22;3555;53.248;10.336;2022-07-06T05:54:09;17.30;99.90
7028;DHT22;3555;53.248;10.336;2022-07-06T05:56:36;17.30;99.90
7028;DHT22;3555;53.248;10.336;2022-07-06T05:59:03;17.40;33.80
7028;DHT22;3555;53.248;10.336;2022-07-06T06:01:30;17.50;1.00
7028;DHT22;3555;53.248;10.336;2022-07-06T06:03:57;17.40;1.00
7028;DHT22;3555;53.248;10.336;2022-07-06T06:06:24;17.50;74.00
7028;DHT22;3555;53.248;10.336;2022-07-06T06:08:53;17.60;1.00
7028;DHT22;3555;53.248;10.336;2022-07-06T06:11:19;17.60;1.00
7028;DHT22;3555;53.248;10.336;2022-07-06T06:13:46;17.70;1.00
7028;DHT22;3555;53.248;10.336;2022-07-06T06:16:13;17.70;1.00
7028;DHT22;3555;53.248;10.336;2022-07-06T06:18:41;17.80;1.00
7028;DHT22;3555;53.248;10.336;2022-07-06T06:21:08;17.90;1.00
7028;DHT22;3555;53.248;10.336;2022-07-06T06:23:35;17.90;1.00
7028;DHT22;3555;53.248;10.336;2022-07-06T06:26:03;17.90;1.00
7028;DHT22;3555;53.248;10.336;2022-07-06T06:28:30;18.00;1.00
7028;DHT22;3555;53.248;10.336;2022-07-06T06:30:57;17.90;1.00
7028;DHT22;3555;53.248;10.336;2022-07-06T06:33:23;18.00;1.00
7028;DHT22;3555;53.248;10.336;2022-07-06T06:35:52;17.80;1.00
7028;DHT22;3555;53.248;10.336;2022-07-06T06:38:20;17.90;1.00
7028;DHT22;3555;53.248;10.336;2022-07-06T06:40:47;18.00;1.00
7028;DHT22;3555;53.248;10.336;2022-07-06T06:43:16;17.90;1.00
7028;DHT22;3555;53.248;10.336;2022-07-06T06:45:42;18.10;1.00
7028;DHT22;3555;53.248;10.336;2022-07-06T06:48:10;18.00;99.90
7028;DHT22;3555;53.248;10.336;2022-07-06T06:50:37;18.00;1.00
7028;DHT22;3555;53.248;10.336;2022-07-06T06:53:04;18.10;1.00
7028;DHT22;3555;53.248;10.336;2022-07-06T06:55:30;18.00;1.00
7028;DHT22;3555;53.248;10.336;2022-07-06T06:57:57;18.10;1.00
7028;DHT22;3555;53.248;10.336;2022-07-06T07:00:25;18.30;1.00
7028;DHT22;3555;53.248;10.336;2022-07-06T07:02:52;18.50;99.90
7028;DHT22;3555;53.248;10.336;2022-07-06T07:05:19;18.70;99.90
7028;DHT22;3555;53.248;10.336;2022-07-06T07:07:46;18.80;99.90
7028;DHT22;3555;53.248;10.336;2022-07-06T07:10:13;18.70;99.90
7028;DHT22;3555;53.248;10.336;2022-07-06T07:12:44;18.90;99.90
7028;DHT22;3555;53.248;10.336;2022-07-06T07:15:10;19.00;99.90
7028;DHT22;3555;53.248;10.336;2022-07-06T07:17:39;19.10;99.90
7028;DHT22;3555;53.248;10.336;2022-07-06T07:20:08;19.20;99.90
7028;DHT22;3555;53.248;10.336;2022-07-06T07:22:35;19.30;99.90
7028;DHT22;3555;53.248;10.336;2022-07-06T07:25:02;19.40;95.90
7028;DHT22;3555;53.248;10.336;2022-07-06T07:27:29;19.30;99.90
7028;DHT22;3555;53.248;10.336;2022-07-06T07:29:55;19.40;99.90
7028;DHT22;3555;53.248;10.336;2022-07-06T07:32:22;19.30;99.90
7028;DHT22;3555;53.248;10.336;2022-07-06T07:34:50;19.20;99.90
7028;DHT22;3555;53.248;10.336;2022-07-06T07:37:17;19.40;99.90
7028;DHT22;3555;53.248;10.336;2022-07-06T07:39:44;19.30;99.90
7028;DHT22;3555;53.248;10.336;2022-07-06T07:42:11;19.30;89.30
7028;DHT22;3555;53.248;10.336;2022-07-06T07:44:38;19.40;99.90
7028;DHT22;3555;53.248;10.336;2022-07-06T07:47:06;19.40;99.90
7028;DHT22;3555;53.248;10.336;2022-07-06T07:49:33;19.50;99.90
7028;DHT22;3555;53.248;10.336;2022-07-06T07:52:01;19.60;78.20
7028;DHT22;3555;53.248;10.336;2022-07-06T07:54:28;19.60;37.70
7028;DHT22;3555;53.248;10.336;2022-07-06T07:56:55;19.70;99.90
7028;DHT22;3555;53.248;10.336;2022-07-06T07:59:22;19.80;83.70
7028;DHT22;3555;53.248;10.336;2022-07-06T08:01:49;19.70;57.60
7028;DHT22;3555;53.248;10.336;2022-07-06T08:04:16;19.90;53.70
7028;DHT22;3555;53.248;10.336;2022-07-06T08:06:43;20.00;99.90
7028;DHT22;3555;53.248;10.336;2022-07-06T08:09:11;20.20;1.00
7028;DHT22;3555;53.248;10.336;2022-07-06T08:11:38;20.20;10.60
7028;DHT22;3555;53.248;10.336;2022-07-06T08:14:05;20.30;99.90
7028;DHT22;3555;53.248;10.336;2022-07-06T08:16:32;20.50;31.70
7028;DHT22;3555;53.248;10.336;2022-07-06T08:18:59;20.80;1.00
7028;DHT22;3555;53.248;10.336;2022-07-06T08:21:26;21.00;1.00
7028;DHT22;3555;53.248;10.336;2022-07-06T08:23:54;21.00;1.00
7028;DHT22;3555;53.248;10.336;2022-07-06T08:26:22;20.90;1.00
7028;DHT22;3555;53.248;10.336;2022-07-06T08:28:49;20.80;1.00
7028;DHT22;3555;53.248;10.336;2022-07-06T08:31:16;20.80;1.00
7028;DHT22;3555;53.248;10.336;2022-07-06T08:33:43;20.90;1.00
7028;DHT22;3555;53.248;10.336;2022-07-06T08:36:10;20.90;1.00
7028;DHT22;3555;53.248;10.336;2022-07-06T08:38:37;21.00;1.00
7028;DHT22;3555;53.248;10.336;2022-07-06T08:41:05;20.90;1.00
7028;DHT22;3555;53.248;10.336;2022-07-06T08:43:34;21.00;1.00
7028;DHT22;3555;53.248;10.336;2022-07-06T08:46:02;21.00;1.00
7028;DHT22;3555;53.248;10.336;2022-07-06T08:48:35;21.10;1.00
7028;DHT22;3555;53.248;10.336;2022-07-06T08:51:02;21.20;1.00
7028;DHT22;3555;53.248;10.336;2022-07-06T08:53:30;20.90;1.00
7028;DHT22;3555;53.248;10.336;2022-07-06T08:55:57;20.90;1.00
7028;DHT22;3555;53.248;10.336;2022-07-06T08:58:25;20.70;1.00
7028;DHT22;3555;53.248;10.336;2022-07-06T09:00:54;20.60;1.00
7028;DHT22;3555;53.248;10.336;2022-07-06T09:03:21;20.60;1.00
7028;DHT22;3555;53.248;10.336;2022-07-06T09:05:50;20.40;1.00
7028;DHT22;3555;53.248;10.336;2022-07-06T09:08:19;20.50;1.00
7028;DHT22;3555;53.248;10.336;2022-07-06T09:10:46;20.40;1.00
7028;DHT22;3555;53.248;10.336;2022-07-06T09:13:13;20.30;1.00
7028;DHT22;3555;53.248;10.336;2022-07-06T09:15:40;20.30;1.00
7028;DHT22;3555;53.248;10.336;2022-07-06T09:18:08;20.30;1.00
7028;DHT22;3555;53.248;10.336;2022-07-06T09:20:35;20.40;1.00
7028;DHT22;3555;53.248;10.336;2022-07-06T09:23:03;20.10;1.00
7028;DHT22;3555;53.248;10.336;2022-07-06T09:25:31;20.00;1.00
7028;DHT22;3555;53.248;10.336;2022-07-06T09:27:58;19.70;1.00
7028;DHT22;3555;53.248;10.336;2022-07-06T09:30:26;19.60;1.00
7028;DHT22;3555;53.248;10.336;2022-07-06T09:32:54;19.30;1.00
7028;DHT22;3555;53.248;10.336;2022-07-06T09:35:23;19.10;1.00
7028;DHT22;3555;53.248;10.336;2022-07-06T09:38:00;18.90;28.20
7028;DHT22;3555;53.248;10.336;2022-07-06T09:40:27;18.90;96.10
7028;DHT22;3555;53.248;10.336;2022-07-06T09:43:11;18.70;99.90
7028;DHT22;3555;53.248;10.336;2022-07-06T09:45:39;18.70;99.90
7028;DHT22;3555;53.248;10.336;2022-07-06T09:48:08;18.70;99.90
7028;DHT22;3555;53.248;10.336;2022-07-06T09:50:44;18.60;99.90
7028;DHT22;3555;53.248;10.336;2022-07-06T09:53:12;18.50;99.90
7028;DHT22;3555;53.248;10.336;2022-07-06T09:55:43;18.50;99.90
7028;DHT22;3555;53.248;10.336;2022-07-06T09:58:10;18.60;99.90
7028;DHT22;3555;53.248;10.336;2022-07-06T10:00:36;18.70;99.90
7028;DHT22;3555;53.248;10.336;2022-07-06T10:03:04;18.80;99.90
7028;DHT22;3555;53.248;10.336;2022-07-06T10:05:32;18.90;99.90
7028;DHT22;3555;53.248;10.336;2022-07-06T10:08:00;19.00;99.90
7028;DHT22;3555;53.248;10.336;2022-07-06T10:10:31;19.20;99.90
7028;DHT22;3555;53.248;10.336;2022-07-06T10:12:59;19.30;99.90
7028;DHT22;3555;53.248;10.336;2022-07-06T10:15:28;19.50;81.90
7028;DHT22;3555;53.248;10.336;2022-07-06T10:17:58;19.50;1.00
7028;DHT22;3555;53.248;10.336;2022-07-06T10:20:28;19.70;1.00
7028;DHT22;3555;53.248;10.336;2022-07-06T10:22:58;19.70;1.00
7028;DHT22;3555;53.248;10.336;2022-07-06T10:25:27;19.80;1.00
7028;DHT22;3555;53.248;10.336;2022-07-06T10:27:55;19.90;1.00
7028;DHT22;3555;53.248;10.336;2022-07-06T10:30:22;20.00;1.00
7028;DHT22;3555;53.248;10.336;2022-07-06T10:32:51;20.10;1.00
7028;DHT22;3555;53.248;10.336;2022-07-06T10:35:18;20.20;1.00
7028;DHT22;3555;53.248;10.336;2022-07-06T10:37:46;20.20;1.00
7028;DHT22;3555;53.248;10.336;2022-07-06T10:40:33;20.10;1.00
7028;DHT22;3555;53.248;10.336;2022-07-06T10:43:18;20.10;1.00
7028;DHT22;3555;53.248;10.336;2022-07-06T10:45:52;20.10;1.00
7028;DHT22;3555;53.248;10.336;2022-07-06T10:48:21;19.90;1.00
7028;DHT22;3555;53.248;10.336;2022-07-06T10:50:51;19.70;1.00
7028;DHT22;3555;53.248;10.336;2022-07-06T10:53:22;19.70;9.50
7028;DHT22;3555;53.248;10.336;2022-07-06T10:55:52;19.50;99.90
7028;DHT22;3555;53.248;10.336;2022-07-06T10:58:46;19.50;99.90
7028;DHT22;3555;53.248;10.336;2022-07-06T11:01:14;19.50;99.90
7028;DHT22;3555;53.248;10.336;2022-07-06T11:03:43;19.60;99.90
7028;DHT22;3555;53.248;10.336;2022-07-06T11:06:13;19.60;99.90
7028;DHT22;3555;53.248;10.336;2022-07-06T11:09:01;19.60;93.30
7028;DHT22;3555;53.248;10.336;2022-07-06T11:11:40;19.70;1.00
7028;DHT22;3555;53.248;10.336;2022-07-06T11:14:08;19.60;1.00
7028;DHT22;3555;53.248;10.336;2022-07-06T11:16:37;19.70;1.00
7028;DHT22;3555;53.248;10.336;2022-07-06T11:19:07;19.80;1.00
7028;DHT22;3555;53.248;10.336;2022-07-06T11:21:44;19.70;1.00
7028;DHT22;3555;53.248;10.336;2022-07-06T11:24:13;19.80;1.00
7028;DHT22;3555;53.248;10.336;2022-07-06T11:26:44;20.00;1.00
7028;DHT22;3555;53.248;10.336;2022-07-06T11:29:12;20.10;1.00
7028;DHT22;3555;53.248;10.336;2022-07-06T11:31:40;20.10;1.00
7028;DHT22;3555;53.248;10.336;2022-07-06T11:34:08;20.10;1.00
7028;DHT22;3555;53.248;10.336;2022-07-06T11:36:36;20.00;1.00
7028;DHT22;3555;53.248;10.336;2022-07-06T11:39:04;19.90;1.00
7028;DHT22;3555;53.248;10.336;2022-07-06T11:41:32;19.80;1.00
7028;DHT22;3555;53.248;10.336;2022-07-06T11:44:00;20.00;1.00
7028;DHT22;3555;53.248;10.336;2022-07-06T11:46:28;20.00;1.00
7028;DHT22;3555;53.248;10.336;2022-07-06T11:48:57;20.20;1.00
7028;DHT22;3555;53.248;10.336;2022-07-06T11:51:25;20.40;1.00
7028;DHT22;3555;53.248;10.336;2022-07-06T11:53:53;20.40;1.00
7028;DHT22;3555;53.248;10.336;2022-07-06T11:56:20;20.50;1.00
7028;DHT22;3555;53.248;10.336;2022-07-06T11:58:51;20.60;1.00
7028;DHT22;3555;53.248;10.336;2022-07-06T12:01:21;20.70;1.00
7028;DHT22;3555;53.248;10.336;2022-07-06T12:03:49;20.70;1.00
7028;DHT22;3555;53.248;10.336;2022-07-06T12:06:18;20.80;1.00
7028;DHT22;3555;53.248;10.336;2022-07-06T12:08:47;21.00;1.00
7028;DHT22;3555;53.248;10.336;2022-07-06T12:11:19;21.10;1.00
7028;DHT22;3555;53.248;10.336;2022-07-06T12:13:47;21.20;1.00
7028;DHT22;3555;53.248;10.336;2022-07-06T12:16:15;21.30;1.00
7028;DHT22;3555;53.248;10.336;2022-07-06T12:18:44;21.40;1.00
7028;DHT22;3555;53.248;10.336;2022-07-06T12:21:13;21.50;1.00
7028;DHT22;3555;53.248;10.336;2022-07-06T12:23:43;21.60;1.00
7028;DHT22;3555;53.248;10.336;2022-07-06T12:26:11;21.60;1.00
7028;DHT22;3555;53.248;10.336;2022-07-06T12:28:39;21.70;1.00
7028;DHT22;3555;53.248;10.336;2022-07-06T12:31:06;21.70;1.00
7028;DHT22;3555;53.248;10.336;2022-07-06T12:33:33;21.80;1.00
7028;DHT22;3555;53.248;10.336;2022-07-06T12:36:12;21.80;1.00
7028;DHT22;3555;53.248;10.336;2022-07-06T12:38:47;21.90;1.00
7028;DHT22;3555;53.248;10.336;2022-07-06T12:41:28;22.20;1.00
7028;DHT22;3555;53.248;10.336;2022-07-06T12:44:03;22.40;1.00
7028;DHT22;3555;53.248;10.336;2022-07-06T12:46:31;22.30;1.00
7028;DHT22;3555;53.248;10.336;2022-07-06T12:48:59;22.10;1.00
7028;DHT22;3555;53.248;10.336;2022-07-06T12:51:28;22.20;1.00
7028;DHT22;3555;53.248;10.336;2022-07-06T12:54:12;22.10;1.00
7028;DHT22;3555;53.248;10.336;2022-07-06T12:56:58;22.30;1.00
7028;DHT22;3555;53.248;10.336;2022-07-06T12:59:25;22.30;1.00
7028;DHT22;3555;53.248;10.336;2022-07-06T13:01:52;22.30;1.00
7028;DHT22;3555;53.248;10.336;2022-07-06T13:04:21;22.40;1.00
7028;DHT22;3555;53.248;10.336;2022-07-06T13:06:50;22.50;1.00
7028;DHT22;3555;53.248;10.336;2022-07-06T13:09:17;22.60;1.00
7028;DHT22;3555;53.248;10.336;2022-07-06T13:11:44;22.60;1.00
7028;DHT22;3555;53.248;10.336;2022-07-06T13:14:11;22.60;1.00
7028;DHT22;3555;53.248;10.336;2022-07-06T13:16:38;22.70;1.00
7028;DHT22;3555;53.248;10.336;2022-07-06T13:21:41;23.20;1.00
7028;DHT22;3555;53.248;10.336;2022-07-06T13:24:09;23.50;1.00
7028;DHT22;3555;53.248;10.336;2022-07-06T13:26:36;23.80;1.00
7028;DHT22;3555;53.248;10.336;2022-07-06T13:29:03;24.10;1.00
7028;DHT22;3555;53.248;10.336;2022-07-06T13:31:30;24.30;1.00
7028;DHT22;3555;53.248;10.336;2022-07-06T13:33:57;24.20;1.00
7028;DHT22;3555;53.248;10.336;2022-07-06T13:36:24;24.30;1.00
7028;DHT22;3555;53.248;10.336;2022-07-06T13:38:51;24.40;1.00
7028;DHT22;3555;53.248;10.336;2022-07-06T13:41:19;24.30;1.00
7028;DHT22;3555;53.248;10.336;2022-07-06T13:43:46;24.40;1.00
7028;DHT22;3555;53.248;10.336;2022-07-06T13:46:13;24.40;1.00
7028;DHT22;3555;53.248;10.336;2022-07-06T13:48:42;24.40;1.00
7028;DHT22;3555;53.248;10.336;2022-07-06T13:51:09;24.30;1.00
7028;DHT22;3555;53.248;10.336;2022-07-06T13:53:36;24.20;1.00
7028;DHT22;3555;53.248;10.336;2022-07-06T13:56:04;24.20;1.00
7028;DHT22;3555;53.248;10.336;2022-07-06T13:58:32;24.30;1.00
7028;DHT22;3555;53.248;10.336;2022-07-06T14:00:59;24.30;1.00
7028;DHT22;3555;53.248;10.336;2022-07-06T14:03:26;24.20;1.00
7028;DHT22;3555;53.248;10.336;2022-07-06T14:05:55;24.30;1.00
7028;DHT22;3555;53.248;10.336;2022-07-06T14:08:22;24.20;1.00
7028;DHT22;3555;53.248;10.336;2022-07-06T14:10:49;24.30;1.00
7028;DHT22;3555;53.248;10.336;2022-07-06T14:13:16;24.40;1.00
7028;DHT22;3555;53.248;10.336;2022-07-06T14:15:44;24.40;1.00
7028;DHT22;3555;53.248;10.336;2022-07-06T14:18:11;24.10;1.00
7028;DHT22;3555;53.248;10.336;2022-07-06T14:20:40;23.70;1.00
7028;DHT22;3555;53.248;10.336;2022-07-06T14:23:07;23.70;1.00
7028;DHT22;3555;53.248;10.336;2022-07-06T14:25:34;23.60;1.00
7028;DHT22;3555;53.248;10.336;2022-07-06T14:28:01;23.50;1.00
7028;DHT22;3555;53.248;10.336;2022-07-06T14:30:28;23.60;1.00
7028;DHT22;3555;53.248;10.336;2022-07-06T14:32:56;23.70;1.00
7028;DHT22;3555;53.248;10.336;2022-07-06T14:35:23;23.60;1.00
7028;DHT22;3555;53.248;10.336;2022-07-06T14:37:51;23.40;1.00
7028;DHT22;3555;53.248;10.336;2022-07-06T14:40:18;23.30;1.00
7028;DHT22;3555;53.248;10.336;2022-07-06T14:42:45;23.40;1.00
7028;DHT22;3555;53.248;10.336;2022-07-06T14:45:12;23.50;1.00
7028;DHT22;3555;53.248;10.336;2022-07-06T14:47:39;23.70;1.00
7028;DHT22;3555;53.248;10.336;2022-07-06T14:50:07;23.80;1.00
7028;DHT22;3555;53.248;10.336;2022-07-06T14:52:34;23.90;1.00
7028;DHT22;3555;53.248;10.336;2022-07-06T14:55:01;23.90;1.00
7028;DHT22;3555;53.248;10.336;2022-07-06T14:57:28;23.70;1.00
7028;DHT22;3555;53.248;10.336;2022-07-06T14:59:55;23.60;1.00
7028;DHT22;3555;53.248;10.336;2022-07-06T15:02:22;23.40;1.00
7028;DHT22;3555;53.248;10.336;2022-07-06T15:04:49;23.50;1.00
7028;DHT22;3555;53.248;10.336;2022-07-06T15:07:17;23.40;1.00
7028;DHT22;3555;53.248;10.336;2022-07-06T15:09:44;23.40;1.00
7028;DHT22;3555;53.248;10.336;2022-07-06T15:12:11;23.30;1.00
7028;DHT22;3555;53.248;10.336;2022-07-06T15:14:38;23.30;1.00
7028;DHT22;3555;53.248;10.336;2022-07-06T15:17:05;23.30;1.00
7028;DHT22;3555;53.248;10.336;2022-07-06T15:19:31;23.40;1.00
7028;DHT22;3555;53.248;10.336;2022-07-06T15:21:58;23.40;1.00
7028;DHT22;3555;53.248;10.336;2022-07-06T15:24:27;23.50;1.00
7028;DHT22;3555;53.248;10.336;2022-07-06T15:26:54;23.60;1.00
7028;DHT22;3555;53.248;10.336;2022-07-06T15:29:21;23.60;1.00
7028;DHT22;3555;53.248;10.336;2022-07-06T15:31:48;23.70;1.00
7028;DHT22;3555;53.248;10.336;2022-07-06T15:34:15;23.70;1.00
7028;DHT22;3555;53.248;10.336;2022-07-06T15:36:42;23.80;1.00
7028;DHT22;3555;53.248;10.336;2022-07-06T15:39:08;23.60;1.00
7028;DHT22;3555;53.248;10.336;2022-07-06T15:41:37;23.50;1.00
7028;DHT22;3555;53.248;10.336;2022-07-06T15:44:04;23.40;1.00
7028;DHT22;3555;53.248;10.336;2022-07-06T15:46:31;23.40;1.00
7028;DHT22;3555;53.248;10.336;2022-07-06T15:48:58;23.40;1.00
7028;DHT22;3555;53.248;10.336;2022-07-06T15:51:24;23.30;1.00
7028;DHT22;3555;53.248;10.336;2022-07-06T15:53:51;23.30;1.00
7028;DHT22;3555;53.248;10.336;2022-07-06T15:56:18;23.40;1.00
7028;DHT22;3555;53.248;10.336;2022-07-06T15:58:46;23.40;1.00
7028;DHT22;3555;53.248;10.336;2022-07-06T16:01:14;23.40;1.00
7028;DHT22;3555;53.248;10.336;2022-07-06T16:03:40;23.40;1.00
7028;DHT22;3555;53.248;10.336;2022-07-06T16:06:08;23.50;1.00